createdAt,value
2023-04-14T00:01:50.112Z,5.25
2023-04-14T00:04:17.050Z,6.75
2023-04-14T00:06:43.945Z,4.85
2023-04-14T00:09:10.924Z,4.97
2023-04-14T00:11:37.679Z,5.22
2023-04-14T00:14:04.383Z,7.22
2023-04-14T00:16:31.087Z,4.93
2023-04-14T00:18:57.861Z,2.85
2023-04-14T00:21:24.697Z,3.85
2023-04-14T00:23:51.365Z,5.18
2023-04-14T00:26:19.049Z,3.40
2023-04-14T00:28:45.679Z,4.90
2023-04-14T00:31:12.676Z,4.63
2023-04-14T00:33:41.636Z,4.90
2023-04-14T00:36:08.375Z,4.80
2023-04-14T00:38:34.979Z,3.22
2023-04-14T00:41:01.663Z,4.25
2023-04-14T00:43:28.443Z,6.03
2023-04-14T00:46:08.754Z,3.05
2023-04-14T00:48:36.020Z,4.13
2023-04-14T00:51:03.752Z,6.93
2023-04-14T00:53:31.814Z,3.33
2023-04-14T00:55:59.761Z,10.55
2023-04-14T00:58:26.638Z,13.85
2023-04-14T01:00:55.580Z,12.52
2023-04-14T01:03:24.460Z,13.23
2023-04-14T01:05:51.655Z,7.35
2023-04-14T01:08:19.535Z,11.02
2023-04-14T01:11:09.372Z,9.98
2023-04-14T01:14:01.484Z,10.68
2023-04-14T01:16:38.824Z,8.18
2023-04-14T01:19:06.174Z,4.18
2023-04-14T01:21:41.376Z,4.05
2023-04-14T01:24:49.732Z,8.52
2023-04-14T01:27:34.211Z,4.22
2023-04-14T01:30:10.980Z,10.77
2023-04-14T01:32:44.300Z,13.75
2023-04-14T01:35:14.670Z,8.32
2023-04-14T01:37:54.175Z,6.53
2023-04-14T01:40:22.776Z,5.35
2023-04-14T01:42:59.460Z,2.95
2023-04-14T01:45:30.751Z,6.10
2023-04-14T01:47:58.560Z,5.30
2023-04-14T01:50:27.105Z,12.50
2023-04-14T01:52:54.782Z,10.80
2023-04-14T01:55:23.098Z,15.73
2023-04-14T01:57:52.264Z,13.77
2023-04-14T02:00:21.379Z,14.45
2023-04-14T02:02:52.301Z,14.52
2023-04-14T02:05:21.253Z,14.70
2023-04-14T02:07:49.518Z,16.42
2023-04-14T02:10:19.710Z,12.50
2023-04-14T02:12:48.369Z,5.43
2023-04-14T02:15:17.289Z,4.32
2023-04-14T02:17:48.394Z,3.75
2023-04-14T02:20:15.905Z,6.35
2023-04-14T02:22:42.907Z,3.97
2023-04-14T02:25:10.314Z,4.45
2023-04-14T02:27:47.973Z,4.78
2023-04-14T02:30:19.465Z,4.70
2023-04-14T02:32:50.996Z,5.43
2023-04-14T02:35:25.013Z,6.07
2023-04-14T02:37:56.188Z,4.15
2023-04-14T02:40:30.973Z,2.95
2023-04-14T02:43:13.461Z,2.85
2023-04-14T02:48:12.924Z,2.25
2023-04-14T02:50:44.088Z,3.28
2023-04-14T02:53:10.887Z,2.67
2023-04-14T02:55:41.446Z,2.50
2023-04-14T02:58:08.908Z,3.13
2023-04-14T03:00:37.976Z,2.88
2023-04-14T03:03:05.601Z,2.55
2023-04-14T03:05:33.754Z,1.80
2023-04-14T03:08:04.156Z,2.90
2023-04-14T03:10:32.378Z,2.03
2023-04-14T03:13:16.420Z,2.42
2023-04-14T03:15:44.721Z,2.45
2023-04-14T03:18:15.756Z,2.72
2023-04-14T03:20:45.260Z,2.78
2023-04-14T03:23:20.183Z,2.47
2023-04-14T03:25:47.908Z,1.67
2023-04-14T03:28:28.297Z,4.03
2023-04-14T03:30:56.784Z,1.80
2023-04-14T03:33:29.042Z,1.55
2023-04-14T03:35:58.048Z,1.65
2023-04-14T03:38:28.051Z,1.50
2023-04-14T03:40:59.738Z,1.98
2023-04-14T03:43:28.677Z,2.55
2023-04-14T03:46:06.714Z,1.85
2023-04-14T03:48:36.789Z,1.52
2023-04-14T03:51:06.032Z,2.10
2023-04-14T03:53:44.213Z,1.60
2023-04-14T03:56:13.472Z,1.77
2023-04-14T03:58:43.210Z,1.80
2023-04-14T04:01:25.737Z,2.05
2023-04-14T04:03:54.711Z,1.70
2023-04-14T04:06:28.405Z,2.28
2023-04-14T04:08:57.571Z,1.50
2023-04-14T04:11:38.468Z,2.30
2023-04-14T04:14:07.743Z,1.80
2023-04-14T04:16:57.045Z,2.80
2023-04-14T04:19:25.341Z,2.50
2023-04-14T04:21:58.508Z,1.80
2023-04-14T04:24:28.684Z,1.52
2023-04-14T04:26:56.227Z,1.15
2023-04-14T04:29:23.353Z,2.10
2023-04-14T04:31:50.259Z,1.60
2023-04-14T04:34:18.238Z,1.98
2023-04-14T04:36:45.544Z,1.50
2023-04-14T04:39:12.222Z,1.60
2023-04-14T04:41:38.928Z,2.45
2023-04-14T04:44:05.794Z,1.90
2023-04-14T04:46:55.340Z,1.10
2023-04-14T04:49:34.050Z,1.73
2023-04-14T04:52:00.706Z,1.25
2023-04-14T04:54:27.361Z,1.20
2023-04-14T04:56:54.095Z,1.55
2023-04-14T04:59:20.746Z,1.17
2023-04-14T05:01:47.595Z,1.60
2023-04-14T05:04:14.497Z,1.48
2023-04-14T05:06:48.746Z,1.98
2023-04-14T05:09:15.425Z,1.70
2023-04-14T05:11:42.380Z,2.10
2023-04-14T05:14:09.136Z,2.08
2023-04-14T05:16:36.247Z,1.50
2023-04-14T05:19:03.366Z,1.10
2023-04-14T05:21:30.270Z,1.20
2023-04-14T05:23:56.939Z,1.80
2023-04-14T05:28:53.123Z,1.40
2023-04-14T05:31:20.406Z,1.30
2023-04-14T05:33:47.217Z,1.40
2023-04-14T05:36:14.018Z,1.85
2023-04-14T05:38:40.687Z,1.70
2023-04-14T05:41:07.748Z,2.78
2023-04-14T05:43:34.690Z,1.65
2023-04-14T05:46:01.599Z,1.80
2023-04-14T05:48:30.522Z,2.05
2023-04-14T05:51:29.447Z,2.00
2023-04-14T05:53:56.141Z,2.90
2023-04-14T05:56:22.805Z,1.50
2023-04-14T05:58:49.595Z,1.40
2023-04-14T06:01:16.386Z,1.80
2023-04-14T06:04:08.793Z,2.20
2023-04-14T06:06:35.986Z,1.80
2023-04-14T06:09:02.771Z,1.17
2023-04-14T06:11:29.558Z,1.33
2023-04-14T06:13:56.567Z,2.17
2023-04-14T06:16:23.373Z,3.17
2023-04-14T06:18:50.101Z,2.60
2023-04-14T06:21:16.727Z,2.60
2023-04-14T06:23:43.428Z,1.58
2023-04-14T06:26:10.393Z,1.25
2023-04-14T06:28:37.094Z,1.30
2023-04-14T06:31:21.647Z,1.83
2023-04-14T06:33:48.371Z,1.70
2023-04-14T06:36:21.066Z,1.17
2023-04-14T06:38:47.745Z,1.58
2023-04-14T06:41:14.396Z,1.45
2023-04-14T06:43:42.685Z,1.20
2023-04-14T06:46:09.359Z,1.80
2023-04-14T06:48:36.493Z,1.88
2023-04-14T06:51:03.810Z,1.58
2023-04-14T06:53:30.656Z,1.50
2023-04-14T06:56:01.762Z,1.30
2023-04-14T06:58:29.401Z,1.65
2023-04-14T07:00:57.438Z,2.30
2023-04-14T07:03:24.943Z,1.52
2023-04-14T07:05:52.968Z,1.77
2023-04-14T07:08:20.574Z,1.52
2023-04-14T07:10:47.925Z,1.58
2023-04-14T07:13:14.707Z,1.60
2023-04-14T07:15:46.972Z,1.45
2023-04-14T07:20:41.011Z,2.15
2023-04-14T07:23:07.798Z,1.52
2023-04-14T07:25:36.771Z,1.77
2023-04-14T07:28:04.520Z,1.65
2023-04-14T07:30:31.922Z,1.20
2023-04-14T07:32:59.035Z,1.65
2023-04-14T07:35:26.561Z,1.55
2023-04-14T07:37:53.316Z,1.45
2023-04-14T07:40:20.308Z,1.50
2023-04-14T07:42:47.812Z,1.02
2023-04-14T07:45:14.541Z,1.52
2023-04-14T07:47:41.790Z,1.77
2023-04-14T07:50:08.872Z,1.58
2023-04-14T07:52:35.627Z,1.75
2023-04-14T07:55:02.575Z,1.25
2023-04-14T07:57:29.204Z,1.70
2023-04-14T07:59:55.904Z,1.50
2023-04-14T08:02:22.886Z,1.40
2023-04-14T08:04:49.930Z,1.80
2023-04-14T08:07:33.604Z,0.93
2023-04-14T08:10:00.387Z,0.90
2023-04-14T08:12:27.119Z,1.75
2023-04-14T08:14:54.371Z,1.10
2023-04-14T08:17:21.477Z,1.08
2023-04-14T08:19:48.139Z,1.77
2023-04-14T08:22:14.882Z,1.50
2023-04-14T08:24:41.858Z,1.23
2023-04-14T08:27:08.540Z,1.23
2023-04-14T08:29:35.524Z,2.58
2023-04-14T08:32:02.705Z,1.60
2023-04-14T08:34:29.918Z,1.52
2023-04-14T08:36:56.715Z,1.27
2023-04-14T08:39:23.448Z,3.72
2023-04-14T08:41:52.280Z,1.38
2023-04-14T08:44:19.057Z,1.23
2023-04-14T08:46:47.717Z,0.98
2023-04-14T08:49:26.677Z,2.03
2023-04-14T08:51:54.719Z,2.00
2023-04-14T08:54:21.618Z,1.65
2023-04-14T08:56:49.115Z,1.65
2023-04-14T08:59:18.973Z,2.00
2023-04-14T09:01:46.511Z,1.73
2023-04-14T09:04:14.536Z,1.73
2023-04-14T09:06:41.400Z,1.58
2023-04-14T09:09:08.835Z,1.95
2023-04-14T09:11:36.358Z,2.28
2023-04-14T09:14:04.091Z,1.17
2023-04-14T09:16:32.220Z,2.90
2023-04-14T09:19:07.104Z,1.23
2023-04-14T09:21:53.368Z,1.60
2023-04-14T09:24:32.376Z,1.42
2023-04-14T09:27:05.218Z,1.42
2023-04-14T09:29:38.070Z,1.33
2023-04-14T09:32:06.704Z,1.60
2023-04-14T09:34:33.454Z,1.20
2023-04-14T09:37:07.528Z,1.55
2023-04-14T09:39:35.757Z,1.60
2023-04-14T09:42:03.679Z,1.70
2023-04-14T09:44:30.686Z,1.52
2023-04-14T09:47:02.679Z,2.20
2023-04-14T09:49:29.988Z,1.58
2023-04-14T09:52:07.391Z,1.90
2023-04-14T09:54:34.449Z,1.52
2023-04-14T09:57:02.490Z,3.15
2023-04-14T09:59:34.050Z,1.23
2023-04-14T10:02:05.590Z,1.30
2023-04-14T10:04:32.718Z,1.85
2023-04-14T10:06:59.667Z,1.50
2023-04-14T10:09:28.754Z,1.50
2023-04-14T10:12:14.596Z,3.50
2023-04-14T10:14:43.048Z,1.00
2023-04-14T10:17:10.595Z,1.60
2023-04-14T10:19:37.931Z,2.00
2023-04-14T10:22:06.262Z,2.00
2023-04-14T10:24:33.800Z,1.63
2023-04-14T10:27:02.953Z,1.95
2023-04-14T10:29:30.935Z,1.30
2023-04-14T10:32:07.121Z,1.20
2023-04-14T10:34:34.595Z,1.52
2023-04-14T10:37:15.035Z,1.38
2023-04-14T10:39:42.963Z,1.90
2023-04-14T10:42:09.839Z,2.85
2023-04-14T10:44:36.854Z,1.38
2023-04-14T10:47:07.374Z,1.17
2023-04-14T10:49:39.035Z,1.52
2023-04-14T10:52:27.427Z,2.05
2023-04-14T10:55:03.535Z,1.73
2023-04-14T10:57:30.481Z,2.58
2023-04-14T11:00:00.718Z,1.70
2023-04-14T11:02:32.520Z,1.85
2023-04-14T11:05:00.517Z,1.10
2023-04-14T11:07:28.914Z,1.23
2023-04-14T11:10:19.176Z,1.52
2023-04-14T11:12:47.221Z,1.60
2023-04-14T11:15:15.375Z,1.65
2023-04-14T11:17:43.625Z,1.40
2023-04-14T11:20:21.070Z,1.25
2023-04-14T11:22:52.450Z,1.02
2023-04-14T11:25:23.965Z,1.37
2023-04-14T11:30:20.419Z,1.60
2023-04-14T11:32:52.125Z,1.95
2023-04-14T11:35:20.753Z,3.25
2023-04-14T11:37:47.639Z,1.50
2023-04-14T11:40:15.733Z,1.02
2023-04-14T11:42:49.188Z,1.55
2023-04-14T11:45:16.119Z,1.38
2023-04-14T11:47:59.269Z,1.48
2023-04-14T11:50:27.490Z,1.60
2023-04-14T11:52:55.412Z,1.42
2023-04-14T11:55:25.087Z,1.25
2023-04-14T11:57:52.265Z,1.67
2023-04-14T12:00:19.362Z,1.30
2023-04-14T12:02:46.730Z,2.05
2023-04-14T12:05:18.755Z,1.38
2023-04-14T12:07:47.455Z,2.85
2023-04-14T12:10:15.286Z,1.20
2023-04-14T12:12:42.532Z,1.67
2023-04-14T12:15:10.018Z,1.27
2023-04-14T12:17:37.286Z,1.60
2023-04-14T12:20:05.468Z,1.45
2023-04-14T12:22:32.401Z,1.55
2023-04-14T12:24:59.393Z,0.98
2023-04-14T12:27:27.465Z,1.60
2023-04-14T12:29:54.331Z,1.75
2023-04-14T12:32:22.546Z,1.40
2023-04-14T12:34:57.837Z,1.30
2023-04-14T12:37:28.658Z,1.00
2023-04-14T12:40:00.503Z,1.65
2023-04-14T12:42:28.094Z,2.25
2023-04-14T12:44:59.254Z,1.35
2023-04-14T12:47:34.334Z,1.83
2023-04-14T12:50:21.600Z,1.65
2023-04-14T12:52:48.528Z,1.40
2023-04-14T12:55:31.155Z,1.70
2023-04-14T12:57:58.934Z,1.75
2023-04-14T13:00:27.678Z,1.45
2023-04-14T13:02:57.658Z,1.42
2023-04-14T13:05:24.574Z,1.80
2023-04-14T13:07:51.385Z,1.52
2023-04-14T13:10:18.413Z,1.10
2023-04-14T13:12:45.026Z,1.20
2023-04-14T13:15:27.980Z,1.50
2023-04-14T13:18:00.628Z,0.93
2023-04-14T13:20:30.449Z,1.40
2023-04-14T13:22:57.318Z,1.95
2023-04-14T13:25:24.381Z,1.70
2023-04-14T13:27:51.435Z,1.33
2023-04-14T13:30:18.169Z,1.67
2023-04-14T13:32:45.078Z,1.25
2023-04-14T13:35:11.779Z,1.20
2023-04-14T13:37:38.601Z,1.30
2023-04-14T13:40:13.405Z,1.10
2023-04-14T13:42:40.053Z,1.30
2023-04-14T13:45:07.739Z,1.60
2023-04-14T13:47:34.606Z,1.30
2023-04-14T13:50:01.413Z,1.77
2023-04-14T13:52:28.112Z,1.20
2023-04-14T13:54:54.731Z,1.40
2023-04-14T13:57:21.840Z,1.70
2023-04-14T13:59:48.490Z,1.20
2023-04-14T14:02:15.535Z,1.60
2023-04-14T14:04:43.163Z,1.33
2023-04-14T14:07:09.818Z,0.95
2023-04-14T14:09:36.439Z,1.60
2023-04-14T14:12:09.753Z,1.45
2023-04-14T14:14:36.444Z,1.38
2023-04-14T14:17:03.117Z,1.05
2023-04-14T14:19:29.910Z,1.20
2023-04-14T14:21:56.650Z,1.30
2023-04-14T14:24:23.308Z,1.58
2023-04-14T14:26:50.280Z,1.27
2023-04-14T14:29:16.908Z,1.13
2023-04-14T14:31:43.709Z,1.52
2023-04-14T14:34:10.678Z,1.30
2023-04-14T14:36:37.460Z,1.05
2023-04-14T14:39:04.235Z,2.60
2023-04-14T14:41:31.111Z,1.73
2023-04-14T14:44:01.500Z,1.50
2023-04-14T14:46:28.625Z,1.33
2023-04-14T14:48:55.862Z,1.27
2023-04-14T14:51:23.998Z,1.60
2023-04-14T14:53:50.736Z,3.63
2023-04-14T14:56:18.355Z,2.13
2023-04-14T14:58:45.008Z,1.15
2023-04-14T15:01:11.793Z,1.02
2023-04-14T15:03:38.626Z,2.28
2023-04-14T15:06:06.087Z,1.63
2023-04-14T15:08:33.089Z,2.05
2023-04-14T15:10:59.718Z,1.60
2023-04-14T15:13:27.480Z,1.60
2023-04-14T15:15:59.728Z,1.20
2023-04-14T15:18:26.390Z,1.40
2023-04-14T15:20:54.336Z,1.10
2023-04-14T15:23:21.046Z,1.73
2023-04-14T15:25:47.726Z,1.40
2023-04-14T15:28:14.638Z,1.27
2023-04-14T15:30:41.638Z,1.15
2023-04-14T15:33:08.390Z,1.35
2023-04-14T15:35:39.410Z,1.30
2023-04-14T15:38:07.025Z,1.25
2023-04-14T15:40:33.702Z,1.50
2023-04-14T15:43:00.834Z,1.70
2023-04-14T15:45:27.506Z,1.30
2023-04-14T15:47:54.207Z,1.13
2023-04-14T15:50:20.967Z,1.70
2023-04-14T15:52:47.760Z,1.67
2023-04-14T15:55:14.502Z,1.30
2023-04-14T15:57:41.249Z,1.23
2023-04-14T16:00:08.656Z,1.55
2023-04-14T16:02:35.861Z,1.02
2023-04-14T16:05:05.043Z,1.27
2023-04-14T16:07:35.268Z,1.48
2023-04-14T16:10:02.021Z,0.93
2023-04-14T16:12:30.092Z,0.95
2023-04-14T16:14:57.136Z,1.40
2023-04-14T16:17:24.038Z,1.10
2023-04-14T16:19:53.861Z,1.77
2023-04-14T16:22:20.583Z,1.23
2023-04-14T16:24:47.224Z,1.00
2023-04-14T16:27:13.892Z,1.35
2023-04-14T16:29:41.574Z,1.23
2023-04-14T16:32:08.350Z,0.95
2023-04-14T16:34:35.378Z,1.30
2023-04-14T16:37:02.032Z,3.13
2023-04-14T16:39:29.924Z,1.90
2023-04-14T16:41:57.224Z,1.20
2023-04-14T16:44:23.912Z,1.30
2023-04-14T16:46:51.069Z,0.80
2023-04-14T16:49:17.995Z,1.08
2023-04-14T16:51:44.666Z,1.17
2023-04-14T16:54:17.354Z,1.33
2023-04-14T16:56:45.357Z,1.20
2023-04-14T16:59:12.016Z,1.50
2023-04-14T17:01:38.889Z,0.95
2023-04-14T17:04:06.347Z,1.20
2023-04-14T17:06:33.167Z,2.00
2023-04-14T17:09:00.851Z,1.17
2023-04-14T17:11:27.460Z,1.50
2023-04-14T17:13:54.596Z,1.00
2023-04-14T17:16:21.233Z,1.33
2023-04-14T17:18:48.263Z,1.42
2023-04-14T17:21:14.866Z,1.27
2023-04-14T17:23:41.588Z,1.20
2023-04-14T17:26:08.431Z,1.17
2023-04-14T17:28:35.701Z,1.20
2023-04-14T17:31:06.065Z,1.10
2023-04-14T17:33:32.782Z,1.20
2023-04-14T17:35:59.614Z,1.15
2023-04-14T17:38:26.395Z,1.40
2023-04-14T17:40:54.512Z,1.42
2023-04-14T17:43:21.258Z,1.35
2023-04-14T17:45:50.311Z,0.80
2023-04-14T17:48:18.026Z,0.90
2023-04-14T17:50:45.216Z,1.17
2023-04-14T17:53:13.463Z,1.10
2023-04-14T17:55:40.584Z,1.10
2023-04-14T17:58:07.310Z,1.30
2023-04-14T18:00:34.141Z,1.42
2023-04-14T18:03:01.430Z,1.23
2023-04-14T18:05:28.277Z,1.05
2023-04-14T18:07:55.662Z,1.10
2023-04-14T18:10:22.453Z,1.20
2023-04-14T18:12:49.259Z,1.30
2023-04-14T18:15:16.844Z,0.90
2023-04-14T18:17:43.926Z,1.15
2023-04-14T18:20:11.087Z,1.10
2023-04-14T18:22:38.688Z,1.40
2023-04-14T18:25:09.607Z,2.17
2023-04-14T18:30:07.430Z,1.63
2023-04-14T18:32:34.288Z,1.42
2023-04-14T18:35:01.124Z,1.60
2023-04-14T18:37:27.953Z,2.67
2023-04-14T18:39:55.967Z,1.20
2023-04-14T18:42:22.688Z,1.40
2023-04-14T18:44:49.475Z,2.22
2023-04-14T18:47:17.833Z,1.90
2023-04-14T18:49:44.783Z,2.13
2023-04-14T18:52:12.041Z,2.08
2023-04-14T18:54:38.898Z,1.92
2023-04-14T18:57:06.136Z,2.33
2023-04-14T18:59:33.083Z,2.50
2023-04-14T19:02:00.600Z,2.58
2023-04-14T19:04:27.460Z,2.58
2023-04-14T19:06:54.254Z,2.45
2023-04-14T19:09:20.954Z,2.80
2023-04-14T19:11:48.156Z,2.35
2023-04-14T19:14:14.915Z,3.00
2023-04-14T19:16:41.745Z,2.97
2023-04-14T19:19:08.394Z,3.47
2023-04-14T19:21:35.416Z,3.25
2023-04-14T19:24:02.105Z,4.25
2023-04-14T19:26:29.870Z,4.25
2023-04-14T19:28:58.843Z,3.88
2023-04-14T19:31:28.848Z,4.93
2023-04-14T19:33:56.341Z,4.43
2023-04-14T19:36:23.068Z,3.72
2023-04-14T19:38:49.746Z,3.60
2023-04-14T19:41:16.465Z,2.90
2023-04-14T19:43:43.239Z,3.80
2023-04-14T19:46:12.594Z,3.45
2023-04-14T19:48:39.671Z,3.78
2023-04-14T19:51:06.364Z,3.17
2023-04-14T19:53:33.089Z,3.28
2023-04-14T19:55:59.936Z,3.10
2023-04-14T19:58:28.446Z,4.03
2023-04-14T20:00:58.779Z,4.22
2023-04-14T20:03:33.886Z,3.10
2023-04-14T20:06:01.887Z,3.42
2023-04-14T20:08:34.209Z,3.47
2023-04-14T20:13:35.768Z,3.85
2023-04-14T20:16:02.527Z,5.03
2023-04-14T20:18:29.380Z,4.80
2023-04-14T20:20:56.781Z,2.65
2023-04-14T20:23:23.597Z,3.38
2023-04-14T20:25:50.726Z,4.18
2023-04-14T20:28:19.393Z,3.10
2023-04-14T20:30:48.224Z,3.40
2023-04-14T20:33:16.664Z,3.22
2023-04-14T20:35:43.719Z,3.08
2023-04-14T20:38:14.642Z,3.13
2023-04-14T20:40:42.450Z,2.70
2023-04-14T20:43:09.481Z,2.50
2023-04-14T20:45:36.337Z,2.30
2023-04-14T20:48:03.121Z,2.17
2023-04-14T20:50:29.905Z,2.28
2023-04-14T20:52:57.380Z,2.20
2023-04-14T20:55:24.648Z,1.50
2023-04-14T20:57:51.472Z,2.00
2023-04-14T21:00:18.698Z,1.92
2023-04-14T21:02:49.087Z,1.55
2023-04-14T21:05:17.574Z,1.40
2023-04-14T21:07:45.554Z,1.75
2023-04-14T21:10:13.609Z,2.85
2023-04-14T21:15:00.354Z,1.75
2023-04-14T21:15:50.112Z,1.75
2023-04-14T21:18:14.773Z,1.55
2023-04-14T21:20:43.406Z,1.83
2023-04-14T21:23:10.146Z,2.05
2023-04-14T21:25:37.032Z,2.03
2023-04-14T21:28:03.780Z,2.60
2023-04-14T21:30:31.501Z,2.00
2023-04-14T21:32:58.212Z,1.70
2023-04-14T21:35:25.789Z,1.60
2023-04-14T21:37:52.952Z,2.72
2023-04-14T21:40:20.289Z,1.60
2023-04-14T21:42:46.987Z,1.52
2023-04-14T21:45:14.019Z,1.83
2023-04-14T21:47:41.296Z,1.80
2023-04-14T21:50:09.553Z,2.15
2023-04-14T21:52:36.443Z,1.85
2023-04-14T21:55:03.215Z,2.28
2023-04-14T21:57:48.151Z,1.95
2023-04-14T22:00:17.507Z,2.10
2023-04-14T22:02:45.172Z,1.70
2023-04-14T22:05:12.155Z,1.83
2023-04-14T22:07:39.553Z,1.95
2023-04-14T22:10:07.025Z,1.92
2023-04-14T22:12:37.706Z,1.83
2023-04-14T22:15:06.418Z,2.00
2023-04-14T22:17:41.453Z,2.35
2023-04-14T22:20:09.654Z,1.55
2023-04-14T22:22:36.717Z,1.67
2023-04-14T22:25:04.112Z,1.85
2023-04-14T22:27:31.483Z,2.00
2023-04-14T22:29:58.149Z,1.48
2023-04-14T22:32:24.835Z,1.40
2023-04-14T22:34:51.992Z,1.83
2023-04-14T22:37:18.637Z,2.00
2023-04-14T22:39:45.675Z,1.98
2023-04-14T22:42:13.052Z,1.42
2023-04-14T22:44:39.694Z,1.65
2023-04-14T22:47:06.604Z,1.67
2023-04-14T22:49:33.239Z,2.45
2023-04-14T22:51:59.904Z,1.50
2023-04-14T22:54:27.081Z,1.92
2023-04-14T22:56:53.719Z,1.90
2023-04-14T22:59:20.391Z,1.70
2023-04-14T23:01:48.388Z,1.55
2023-04-14T23:04:15.285Z,1.88
2023-04-14T23:06:42.431Z,2.05
2023-04-14T23:09:09.120Z,1.70
2023-04-14T23:11:35.783Z,2.15
2023-04-14T23:14:03.673Z,2.63
2023-04-14T23:16:31.192Z,3.55
2023-04-14T23:19:06.820Z,1.52
2023-04-14T23:21:33.622Z,2.78
2023-04-14T23:24:00.305Z,1.63
2023-04-14T23:26:28.353Z,2.05
2023-04-14T23:28:55.106Z,2.17
2023-04-14T23:31:21.899Z,1.98
2023-04-14T23:33:50.900Z,1.70
2023-04-14T23:36:17.534Z,1.88
2023-04-14T23:38:44.666Z,3.53
2023-04-14T23:41:11.460Z,2.55
2023-04-14T23:43:39.085Z,2.28
2023-04-14T23:46:05.846Z,2.55
2023-04-14T23:48:32.662Z,3.22
2023-04-14T23:51:17.570Z,2.47
2023-04-14T23:53:46.136Z,2.75
2023-04-14T23:56:13.035Z,2.95
2023-04-14T23:58:39.849Z,2.90
